sensor_id;sensor_type;location;lat;lon;timestamp;P1;durP1;ratioP1;P2;durP2;ratioP2
32475;SDS011;18929;48.008;10.882;2022-11-20T00:01:10;6.25;;;3.13;;
32475;SDS011;18929;48.008;10.882;2022-11-20T00:03:40;5.60;;;3.03;;
32475;SDS011;18929;48.008;10.882;2022-11-20T00:06:07;4.88;;;2.58;;
32475;SDS011;18929;48.008;10.882;2022-11-20T00:08:36;5.93;;;3.08;;
32475;SDS011;18929;48.008;10.882;2022-11-20T00:11:03;4.75;;;3.08;;
32475;SDS011;18929;48.008;10.882;2022-11-20T00:13:33;4.85;;;2.97;;
32475;SDS011;18929;48.008;10.882;2022-11-20T00:16:01;5.20;;;3.40;;
32475;SDS011;18929;48.008;10.882;2022-11-20T00:18:29;5.38;;;2.90;;
32475;SDS011;18929;48.008;10.882;2022-11-20T00:21:00;5.13;;;3.10;;
32475;SDS011;18929;48.008;10.882;2022-11-20T00:23:27;5.15;;;3.20;;
32475;SDS011;18929;48.008;10.882;2022-11-20T00:25:54;5.22;;;3.17;;
32475;SDS011;18929;48.008;10.882;2022-11-20T00:28:21;5.55;;;3.17;;
32475;SDS011;18929;48.008;10.882;2022-11-20T00:30:49;7.72;;;3.72;;
32475;SDS011;18929;48.008;10.882;2022-11-20T00:33:16;5.30;;;3.35;;
32475;SDS011;18929;48.008;10.882;2022-11-20T00:35:43;4.97;;;3.25;;
32475;SDS011;18929;48.008;10.882;2022-11-20T00:38:10;6.28;;;3.40;;
32475;SDS011;18929;48.008;10.882;2022-11-20T00:40:37;5.78;;;3.20;;
32475;SDS011;18929;48.008;10.882;2022-11-20T00:43:04;4.50;;;3.10;;
32475;SDS011;18929;48.008;10.882;2022-11-20T00:45:31;4.75;;;3.45;;
32475;SDS011;18929;48.008;10.882;2022-11-20T00:48:00;7.68;;;3.88;;
32475;SDS011;18929;48.008;10.882;2022-11-20T00:50:26;7.22;;;3.05;;
32475;SDS011;18929;48.008;10.882;2022-11-20T00:52:53;5.53;;;3.22;;
32475;SDS011;18929;48.008;10.882;2022-11-20T00:55:20;6.53;;;3.33;;
32475;SDS011;18929;48.008;10.882;2022-11-20T00:57:47;4.97;;;3.58;;
32475;SDS011;18929;48.008;10.882;2022-11-20T01:00:15;4.10;;;2.90;;
32475;SDS011;18929;48.008;10.882;2022-11-20T01:02:42;5.15;;;3.33;;
32475;SDS011;18929;48.008;10.882;2022-11-20T01:05:10;4.95;;;3.45;;
32475;SDS011;18929;48.008;10.882;2022-11-20T01:07:37;7.13;;;3.50;;
32475;SDS011;18929;48.008;10.882;2022-11-20T01:10:05;4.60;;;3.33;;
32475;SDS011;18929;48.008;10.882;2022-11-20T01:12:32;6.13;;;3.08;;
32475;SDS011;18929;48.008;10.882;2022-11-20T01:14:59;6.20;;;3.38;;
32475;SDS011;18929;48.008;10.882;2022-11-20T01:17:26;7.28;;;3.50;;
32475;SDS011;18929;48.008;10.882;2022-11-20T01:19:53;5.72;;;3.05;;
32475;SDS011;18929;48.008;10.882;2022-11-20T01:22:22;5.32;;;3.35;;
32475;SDS011;18929;48.008;10.882;2022-11-20T01:24:49;4.80;;;3.35;;
32475;SDS011;18929;48.008;10.882;2022-11-20T01:27:16;5.13;;;3.58;;
32475;SDS011;18929;48.008;10.882;2022-11-20T01:29:43;5.82;;;2.92;;
32475;SDS011;18929;48.008;10.882;2022-11-20T01:32:10;5.72;;;3.70;;
32475;SDS011;18929;48.008;10.882;2022-11-20T01:34:37;5.55;;;3.35;;
32475;SDS011;18929;48.008;10.882;2022-11-20T01:37:03;7.10;;;4.22;;
32475;SDS011;18929;48.008;10.882;2022-11-20T01:39:32;4.78;;;3.40;;
32475;SDS011;18929;48.008;10.882;2022-11-20T01:41:59;6.05;;;3.25;;
32475;SDS011;18929;48.008;10.882;2022-11-20T01:44:46;5.30;;;3.65;;
32475;SDS011;18929;48.008;10.882;2022-11-20T01:47:20;5.55;;;3.30;;
32475;SDS011;18929;48.008;10.882;2022-11-20T01:49:52;5.80;;;3.38;;
32475;SDS011;18929;48.008;10.882;2022-11-20T01:52:23;6.32;;;3.92;;
32475;SDS011;18929;48.008;10.882;2022-11-20T01:54:55;4.68;;;3.50;;
32475;SDS011;18929;48.008;10.882;2022-11-20T01:57:26;6.05;;;3.72;;
32475;SDS011;18929;48.008;10.882;2022-11-20T01:59:57;6.93;;;3.60;;
32475;SDS011;18929;48.008;10.882;2022-11-20T02:02:27;5.50;;;3.67;;
32475;SDS011;18929;48.008;10.882;2022-11-20T02:04:55;6.68;;;4.03;;
32475;SDS011;18929;48.008;10.882;2022-11-20T02:09:55;7.80;;;3.60;;
32475;SDS011;18929;48.008;10.882;2022-11-20T02:12:22;7.65;;;3.95;;
32475;SDS011;18929;48.008;10.882;2022-11-20T02:15:19;5.55;;;3.83;;
32475;SDS011;18929;48.008;10.882;2022-11-20T02:17:46;5.35;;;3.78;;
32475;SDS011;18929;48.008;10.882;2022-11-20T02:20:13;6.43;;;3.88;;
32475;SDS011;18929;48.008;10.882;2022-11-20T02:22:41;5.68;;;3.70;;
32475;SDS011;18929;48.008;10.882;2022-11-20T02:25:16;5.75;;;4.25;;
32475;SDS011;18929;48.008;10.882;2022-11-20T02:27:43;6.13;;;3.78;;
32475;SDS011;18929;48.008;10.882;2022-11-20T02:30:11;6.13;;;4.30;;
32475;SDS011;18929;48.008;10.882;2022-11-20T02:32:38;8.27;;;4.13;;
32475;SDS011;18929;48.008;10.882;2022-11-20T02:35:06;5.80;;;4.13;;
32475;SDS011;18929;48.008;10.882;2022-11-20T02:37:34;7.38;;;5.05;;
32475;SDS011;18929;48.008;10.882;2022-11-20T02:40:05;8.02;;;4.30;;
32475;SDS011;18929;48.008;10.882;2022-11-20T02:42:34;9.35;;;4.72;;
32475;SDS011;18929;48.008;10.882;2022-11-20T02:45:02;7.28;;;4.40;;
32475;SDS011;18929;48.008;10.882;2022-11-20T02:47:29;7.75;;;5.13;;
32475;SDS011;18929;48.008;10.882;2022-11-20T02:49:57;8.95;;;4.93;;
32475;SDS011;18929;48.008;10.882;2022-11-20T02:52:24;8.68;;;5.18;;
32475;SDS011;18929;48.008;10.882;2022-11-20T02:54:52;7.15;;;5.05;;
32475;SDS011;18929;48.008;10.882;2022-11-20T02:57:19;6.88;;;5.35;;
32475;SDS011;18929;48.008;10.882;2022-11-20T02:59:47;7.07;;;5.43;;
32475;SDS011;18929;48.008;10.882;2022-11-20T03:02:14;9.30;;;5.82;;
32475;SDS011;18929;48.008;10.882;2022-11-20T03:04:41;8.60;;;5.68;;
32475;SDS011;18929;48.008;10.882;2022-11-20T03:07:08;8.77;;;5.32;;
32475;SDS011;18929;48.008;10.882;2022-11-20T03:09:36;9.40;;;5.88;;
32475;SDS011;18929;48.008;10.882;2022-11-20T03:12:03;8.90;;;5.85;;
32475;SDS011;18929;48.008;10.882;2022-11-20T03:14:30;9.43;;;5.95;;
32475;SDS011;18929;48.008;10.882;2022-11-20T03:16:58;8.48;;;5.88;;
32475;SDS011;18929;48.008;10.882;2022-11-20T03:19:25;8.35;;;5.68;;
32475;SDS011;18929;48.008;10.882;2022-11-20T03:21:53;7.25;;;5.50;;
32475;SDS011;18929;48.008;10.882;2022-11-20T03:24:20;8.30;;;5.43;;
32475;SDS011;18929;48.008;10.882;2022-11-20T03:26:47;9.18;;;5.80;;
32475;SDS011;18929;48.008;10.882;2022-11-20T03:29:14;11.32;;;6.07;;
32475;SDS011;18929;48.008;10.882;2022-11-20T03:31:41;9.05;;;6.07;;
32475;SDS011;18929;48.008;10.882;2022-11-20T03:34:10;9.00;;;5.65;;
32475;SDS011;18929;48.008;10.882;2022-11-20T03:36:38;9.00;;;5.75;;
32475;SDS011;18929;48.008;10.882;2022-11-20T03:39:05;8.98;;;6.30;;
32475;SDS011;18929;48.008;10.882;2022-11-20T03:41:35;9.68;;;5.63;;
32475;SDS011;18929;48.008;10.882;2022-11-20T03:44:04;8.20;;;6.20;;
32475;SDS011;18929;48.008;10.882;2022-11-20T03:46:33;8.05;;;5.55;;
32475;SDS011;18929;48.008;10.882;2022-11-20T03:49:00;10.05;;;6.43;;
32475;SDS011;18929;48.008;10.882;2022-11-20T03:51:29;10.02;;;5.55;;
32475;SDS011;18929;48.008;10.882;2022-11-20T03:53:57;11.10;;;6.40;;
32475;SDS011;18929;48.008;10.882;2022-11-20T03:56:27;8.50;;;6.40;;
32475;SDS011;18929;48.008;10.882;2022-11-20T03:58:55;10.13;;;6.40;;
32475;SDS011;18929;48.008;10.882;2022-11-20T04:01:23;9.20;;;6.30;;
32475;SDS011;18929;48.008;10.882;2022-11-20T04:03:51;9.27;;;5.93;;
32475;SDS011;18929;48.008;10.882;2022-11-20T04:06:20;8.00;;;5.57;;
32475;SDS011;18929;48.008;10.882;2022-11-20T04:08:50;9.30;;;5.70;;
32475;SDS011;18929;48.008;10.882;2022-11-20T04:11:21;10.80;;;6.32;;
32475;SDS011;18929;48.008;10.882;2022-11-20T04:13:50;9.57;;;6.18;;
32475;SDS011;18929;48.008;10.882;2022-11-20T04:16:18;8.27;;;6.18;;
32475;SDS011;18929;48.008;10.882;2022-11-20T04:18:45;10.55;;;6.05;;
32475;SDS011;18929;48.008;10.882;2022-11-20T04:21:12;9.73;;;5.80;;
32475;SDS011;18929;48.008;10.882;2022-11-20T04:23:39;9.23;;;6.05;;
32475;SDS011;18929;48.008;10.882;2022-11-20T04:26:09;9.10;;;5.85;;
32475;SDS011;18929;48.008;10.882;2022-11-20T04:28:38;12.27;;;5.80;;
32475;SDS011;18929;48.008;10.882;2022-11-20T04:31:06;7.80;;;5.25;;
32475;SDS011;18929;48.008;10.882;2022-11-20T04:33:34;8.18;;;5.78;;
32475;SDS011;18929;48.008;10.882;2022-11-20T04:36:02;7.18;;;5.45;;
32475;SDS011;18929;48.008;10.882;2022-11-20T04:38:31;6.47;;;4.25;;
32475;SDS011;18929;48.008;10.882;2022-11-20T04:40:58;10.25;;;5.72;;
32475;SDS011;18929;48.008;10.882;2022-11-20T04:43:27;7.45;;;5.35;;
32475;SDS011;18929;48.008;10.882;2022-11-20T04:45:55;7.60;;;5.45;;
32475;SDS011;18929;48.008;10.882;2022-11-20T04:48:23;9.82;;;5.57;;
32475;SDS011;18929;48.008;10.882;2022-11-20T04:50:51;9.13;;;5.43;;
32475;SDS011;18929;48.008;10.882;2022-11-20T04:53:19;7.20;;;4.47;;
32475;SDS011;18929;48.008;10.882;2022-11-20T04:55:47;8.90;;;5.25;;
32475;SDS011;18929;48.008;10.882;2022-11-20T04:58:14;6.20;;;4.40;;
32475;SDS011;18929;48.008;10.882;2022-11-20T05:00:44;8.73;;;4.20;;
32475;SDS011;18929;48.008;10.882;2022-11-20T05:03:11;9.93;;;4.68;;
32475;SDS011;18929;48.008;10.882;2022-11-20T05:05:38;6.15;;;4.00;;
32475;SDS011;18929;48.008;10.882;2022-11-20T05:08:05;7.05;;;3.90;;
32475;SDS011;18929;48.008;10.882;2022-11-20T05:10:32;5.40;;;3.28;;
32475;SDS011;18929;48.008;10.882;2022-11-20T05:12:59;5.43;;;3.45;;
32475;SDS011;18929;48.008;10.882;2022-11-20T05:15:26;5.53;;;3.63;;
32475;SDS011;18929;48.008;10.882;2022-11-20T05:17:54;6.10;;;3.80;;
32475;SDS011;18929;48.008;10.882;2022-11-20T05:20:21;4.80;;;3.58;;
32475;SDS011;18929;48.008;10.882;2022-11-20T05:22:48;5.90;;;3.72;;
32475;SDS011;18929;48.008;10.882;2022-11-20T05:25:15;4.40;;;3.33;;
32475;SDS011;18929;48.008;10.882;2022-11-20T05:27:42;6.57;;;3.55;;
32475;SDS011;18929;48.008;10.882;2022-11-20T05:30:10;6.40;;;3.80;;
32475;SDS011;18929;48.008;10.882;2022-11-20T05:32:37;8.57;;;4.05;;
32475;SDS011;18929;48.008;10.882;2022-11-20T05:35:06;4.68;;;3.60;;
32475;SDS011;18929;48.008;10.882;2022-11-20T05:37:33;5.35;;;3.88;;
32475;SDS011;18929;48.008;10.882;2022-11-20T05:40:00;7.35;;;4.20;;
32475;SDS011;18929;48.008;10.882;2022-11-20T05:42:29;6.65;;;4.53;;
32475;SDS011;18929;48.008;10.882;2022-11-20T05:44:56;6.38;;;4.57;;
32475;SDS011;18929;48.008;10.882;2022-11-20T05:47:23;5.30;;;4.25;;
32475;SDS011;18929;48.008;10.882;2022-11-20T05:49:51;6.13;;;4.35;;
32475;SDS011;18929;48.008;10.882;2022-11-20T05:52:19;7.47;;;5.00;;
32475;SDS011;18929;48.008;10.882;2022-11-20T05:54:46;6.28;;;4.30;;
32475;SDS011;18929;48.008;10.882;2022-11-20T05:57:13;7.10;;;4.78;;
32475;SDS011;18929;48.008;10.882;2022-11-20T05:59:40;6.82;;;4.72;;
32475;SDS011;18929;48.008;10.882;2022-11-20T06:02:08;6.07;;;4.60;;
32475;SDS011;18929;48.008;10.882;2022-11-20T06:04:35;9.10;;;5.53;;
32475;SDS011;18929;48.008;10.882;2022-11-20T06:07:02;8.93;;;5.35;;
32475;SDS011;18929;48.008;10.882;2022-11-20T06:09:30;8.60;;;5.88;;
32475;SDS011;18929;48.008;10.882;2022-11-20T06:11:57;6.78;;;5.07;;
32475;SDS011;18929;48.008;10.882;2022-11-20T06:14:24;6.88;;;5.00;;
32475;SDS011;18929;48.008;10.882;2022-11-20T06:16:51;8.00;;;5.35;;
32475;SDS011;18929;48.008;10.882;2022-11-20T06:19:18;9.82;;;6.20;;
32475;SDS011;18929;48.008;10.882;2022-11-20T06:21:46;9.75;;;6.13;;
32475;SDS011;18929;48.008;10.882;2022-11-20T06:24:14;9.30;;;6.40;;
32475;SDS011;18929;48.008;10.882;2022-11-20T06:26:43;10.20;;;5.90;;
32475;SDS011;18929;48.008;10.882;2022-11-20T06:29:10;9.45;;;5.88;;
32475;SDS011;18929;48.008;10.882;2022-11-20T06:31:38;9.65;;;6.38;;
32475;SDS011;18929;48.008;10.882;2022-11-20T06:34:05;11.90;;;5.50;;
32475;SDS011;18929;48.008;10.882;2022-11-20T06:36:32;8.35;;;6.18;;
32475;SDS011;18929;48.008;10.882;2022-11-20T06:39:00;9.02;;;6.03;;
32475;SDS011;18929;48.008;10.882;2022-11-20T06:41:28;8.80;;;6.30;;
32475;SDS011;18929;48.008;10.882;2022-11-20T06:43:56;8.57;;;6.18;;
32475;SDS011;18929;48.008;10.882;2022-11-20T06:46:23;9.00;;;6.45;;
32475;SDS011;18929;48.008;10.882;2022-11-20T06:48:50;9.23;;;5.93;;
32475;SDS011;18929;48.008;10.882;2022-11-20T06:53:48;9.27;;;5.93;;
32475;SDS011;18929;48.008;10.882;2022-11-20T06:56:15;9.57;;;6.07;;
32475;SDS011;18929;48.008;10.882;2022-11-20T06:58:42;9.90;;;5.93;;
32475;SDS011;18929;48.008;10.882;2022-11-20T07:01:11;8.80;;;5.80;;
32475;SDS011;18929;48.008;10.882;2022-11-20T07:03:39;9.95;;;6.28;;
32475;SDS011;18929;48.008;10.882;2022-11-20T07:06:08;8.63;;;5.47;;
32475;SDS011;18929;48.008;10.882;2022-11-20T07:08:36;9.65;;;5.60;;
32475;SDS011;18929;48.008;10.882;2022-11-20T07:11:04;8.05;;;5.30;;
32475;SDS011;18929;48.008;10.882;2022-11-20T07:13:32;7.65;;;5.32;;
32475;SDS011;18929;48.008;10.882;2022-11-20T07:16:00;8.90;;;5.45;;
32475;SDS011;18929;48.008;10.882;2022-11-20T07:18:29;6.05;;;4.18;;
32475;SDS011;18929;48.008;10.882;2022-11-20T07:20:59;6.93;;;5.05;;
32475;SDS011;18929;48.008;10.882;2022-11-20T07:23:27;8.15;;;5.15;;
32475;SDS011;18929;48.008;10.882;2022-11-20T07:25:54;7.20;;;4.88;;
32475;SDS011;18929;48.008;10.882;2022-11-20T07:28:21;7.13;;;4.20;;
32475;SDS011;18929;48.008;10.882;2022-11-20T07:30:52;6.85;;;4.72;;
32475;SDS011;18929;48.008;10.882;2022-11-20T07:33:19;10.13;;;5.47;;
32475;SDS011;18929;48.008;10.882;2022-11-20T07:35:48;7.32;;;4.60;;
32475;SDS011;18929;48.008;10.882;2022-11-20T07:38:15;8.50;;;4.75;;
32475;SDS011;18929;48.008;10.882;2022-11-20T07:40:42;7.72;;;4.85;;
32475;SDS011;18929;48.008;10.882;2022-11-20T07:43:09;8.63;;;5.13;;
32475;SDS011;18929;48.008;10.882;2022-11-20T07:45:36;7.75;;;5.22;;
32475;SDS011;18929;48.008;10.882;2022-11-20T07:48:03;8.40;;;4.80;;
32475;SDS011;18929;48.008;10.882;2022-11-20T07:50:30;5.88;;;4.47;;
32475;SDS011;18929;48.008;10.882;2022-11-20T07:53:02;7.80;;;4.18;;
32475;SDS011;18929;48.008;10.882;2022-11-20T07:55:30;6.72;;;4.30;;
32475;SDS011;18929;48.008;10.882;2022-11-20T07:57:58;7.43;;;4.45;;
32475;SDS011;18929;48.008;10.882;2022-11-20T08:00:25;7.35;;;4.75;;
32475;SDS011;18929;48.008;10.882;2022-11-20T08:02:53;6.50;;;4.28;;
32475;SDS011;18929;48.008;10.882;2022-11-20T08:05:20;5.93;;;3.95;;
32475;SDS011;18929;48.008;10.882;2022-11-20T08:07:47;8.07;;;4.50;;
32475;SDS011;18929;48.008;10.882;2022-11-20T08:10:15;6.95;;;4.60;;
32475;SDS011;18929;48.008;10.882;2022-11-20T08:12:43;8.30;;;4.05;;
32475;SDS011;18929;48.008;10.882;2022-11-20T08:15:29;7.13;;;4.03;;
32475;SDS011;18929;48.008;10.882;2022-11-20T08:18:03;7.35;;;4.63;;
32475;SDS011;18929;48.008;10.882;2022-11-20T08:20:31;6.40;;;4.13;;
32475;SDS011;18929;48.008;10.882;2022-11-20T08:22:59;6.32;;;3.55;;
32475;SDS011;18929;48.008;10.882;2022-11-20T08:25:28;5.82;;;3.65;;
32475;SDS011;18929;48.008;10.882;2022-11-20T08:27:59;3.50;;;2.38;;
32475;SDS011;18929;48.008;10.882;2022-11-20T08:30:26;5.72;;;3.83;;
32475;SDS011;18929;48.008;10.882;2022-11-20T08:32:53;5.95;;;4.03;;
32475;SDS011;18929;48.008;10.882;2022-11-20T08:35:21;6.07;;;3.70;;
32475;SDS011;18929;48.008;10.882;2022-11-20T08:37:48;5.28;;;3.38;;
32475;SDS011;18929;48.008;10.882;2022-11-20T08:40:15;7.65;;;3.72;;
32475;SDS011;18929;48.008;10.882;2022-11-20T08:42:47;5.60;;;3.22;;
32475;SDS011;18929;48.008;10.882;2022-11-20T08:48:15;7.63;;;3.30;;
32475;SDS011;18929;48.008;10.882;2022-11-20T08:50:43;4.45;;;2.90;;
32475;SDS011;18929;48.008;10.882;2022-11-20T08:53:10;6.22;;;3.60;;
32475;SDS011;18929;48.008;10.882;2022-11-20T08:55:36;8.07;;;3.17;;
32475;SDS011;18929;48.008;10.882;2022-11-20T08:58:06;9.65;;;4.03;;
32475;SDS011;18929;48.008;10.882;2022-11-20T09:00:33;6.55;;;4.10;;
32475;SDS011;18929;48.008;10.882;2022-11-20T09:03:00;7.40;;;4.13;;
32475;SDS011;18929;48.008;10.882;2022-11-20T09:05:28;6.72;;;3.58;;
32475;SDS011;18929;48.008;10.882;2022-11-20T09:07:55;6.97;;;3.83;;
32475;SDS011;18929;48.008;10.882;2022-11-20T09:10:23;6.72;;;3.38;;
32475;SDS011;18929;48.008;10.882;2022-11-20T09:12:50;6.47;;;3.92;;
32475;SDS011;18929;48.008;10.882;2022-11-20T09:15:20;4.57;;;3.38;;
32475;SDS011;18929;48.008;10.882;2022-11-20T09:17:50;5.38;;;3.80;;
32475;SDS011;18929;48.008;10.882;2022-11-20T09:20:18;6.15;;;3.47;;
32475;SDS011;18929;48.008;10.882;2022-11-20T09:22:45;4.82;;;2.88;;
32475;SDS011;18929;48.008;10.882;2022-11-20T09:25:12;5.78;;;3.58;;
32475;SDS011;18929;48.008;10.882;2022-11-20T09:27:39;8.07;;;3.85;;
32475;SDS011;18929;48.008;10.882;2022-11-20T09:30:09;4.32;;;2.65;;
32475;SDS011;18929;48.008;10.882;2022-11-20T09:32:39;5.65;;;3.22;;
32475;SDS011;18929;48.008;10.882;2022-11-20T09:35:07;6.68;;;3.20;;
32475;SDS011;18929;48.008;10.882;2022-11-20T09:37:35;5.82;;;3.60;;
32475;SDS011;18929;48.008;10.882;2022-11-20T09:40:02;4.65;;;2.15;;
32475;SDS011;18929;48.008;10.882;2022-11-20T09:45:22;3.35;;;2.05;;
32475;SDS011;18929;48.008;10.882;2022-11-20T09:48:01;3.97;;;2.13;;
32475;SDS011;18929;48.008;10.882;2022-11-20T09:50:51;3.30;;;2.20;;
32475;SDS011;18929;48.008;10.882;2022-11-20T09:53:27;3.47;;;1.17;;
32475;SDS011;18929;48.008;10.882;2022-11-20T09:56:01;4.28;;;2.15;;
32475;SDS011;18929;48.008;10.882;2022-11-20T09:58:31;3.55;;;2.00;;
32475;SDS011;18929;48.008;10.882;2022-11-20T10:01:03;3.75;;;2.28;;
32475;SDS011;18929;48.008;10.882;2022-11-20T10:03:39;4.95;;;2.13;;
32475;SDS011;18929;48.008;10.882;2022-11-20T10:06:13;4.72;;;2.55;;
32475;SDS011;18929;48.008;10.882;2022-11-20T10:08:45;3.80;;;2.08;;
32475;SDS011;18929;48.008;10.882;2022-11-20T10:11:20;1.85;;;1.23;;
32475;SDS011;18929;48.008;10.882;2022-11-20T10:13:56;5.35;;;1.70;;
32475;SDS011;18929;48.008;10.882;2022-11-20T10:16:34;3.58;;;1.50;;
32475;SDS011;18929;48.008;10.882;2022-11-20T10:19:13;4.22;;;2.25;;
32475;SDS011;18929;48.008;10.882;2022-11-20T10:21:54;10.98;;;4.30;;
32475;SDS011;18929;48.008;10.882;2022-11-20T10:24:33;27.35;;;15.20;;
32475;SDS011;18929;48.008;10.882;2022-11-20T10:27:41;9.55;;;4.40;;
32475;SDS011;18929;48.008;10.882;2022-11-20T10:30:40;10.57;;;5.60;;
32475;SDS011;18929;48.008;10.882;2022-11-20T10:33:12;6.18;;;3.13;;
32475;SDS011;18929;48.008;10.882;2022-11-20T10:35:44;5.55;;;2.80;;
32475;SDS011;18929;48.008;10.882;2022-11-20T10:38:17;5.20;;;2.08;;
32475;SDS011;18929;48.008;10.882;2022-11-20T10:40:48;5.30;;;3.00;;
32475;SDS011;18929;48.008;10.882;2022-11-20T10:43:21;6.85;;;3.22;;
32475;SDS011;18929;48.008;10.882;2022-11-20T10:45:55;4.18;;;2.50;;
32475;SDS011;18929;48.008;10.882;2022-11-20T10:48:26;3.55;;;2.10;;
32475;SDS011;18929;48.008;10.882;2022-11-20T10:51:03;9.13;;;3.03;;
32475;SDS011;18929;48.008;10.882;2022-11-20T10:53:40;3.67;;;1.73;;
32475;SDS011;18929;48.008;10.882;2022-11-20T10:56:16;6.03;;;2.78;;
32475;SDS011;18929;48.008;10.882;2022-11-20T10:58:52;4.18;;;2.30;;
32475;SDS011;18929;48.008;10.882;2022-11-20T11:01:28;3.33;;;2.08;;
32475;SDS011;18929;48.008;10.882;2022-11-20T11:03:55;3.65;;;2.05;;
32475;SDS011;18929;48.008;10.882;2022-11-20T11:06:28;3.85;;;1.90;;
32475;SDS011;18929;48.008;10.882;2022-11-20T11:09:01;4.47;;;1.92;;
32475;SDS011;18929;48.008;10.882;2022-11-20T11:11:32;5.05;;;1.90;;
32475;SDS011;18929;48.008;10.882;2022-11-20T11:14:06;4.85;;;1.88;;
32475;SDS011;18929;48.008;10.882;2022-11-20T11:16:34;3.15;;;1.70;;
32475;SDS011;18929;48.008;10.882;2022-11-20T11:19:04;3.80;;;2.10;;
32475;SDS011;18929;48.008;10.882;2022-11-20T11:21:34;3.97;;;2.05;;
32475;SDS011;18929;48.008;10.882;2022-11-20T11:24:14;7.32;;;2.85;;
32475;SDS011;18929;48.008;10.882;2022-11-20T11:26:50;3.92;;;2.30;;
32475;SDS011;18929;48.008;10.882;2022-11-20T11:29:19;4.43;;;2.30;;
32475;SDS011;18929;48.008;10.882;2022-11-20T11:31:46;3.60;;;2.40;;
32475;SDS011;18929;48.008;10.882;2022-11-20T11:34:13;3.10;;;2.08;;
32475;SDS011;18929;48.008;10.882;2022-11-20T11:36:47;4.05;;;1.92;;
32475;SDS011;18929;48.008;10.882;2022-11-20T11:39:19;3.38;;;2.13;;
32475;SDS011;18929;48.008;10.882;2022-11-20T11:41:47;6.25;;;2.33;;
32475;SDS011;18929;48.008;10.882;2022-11-20T11:44:15;4.93;;;2.00;;
32475;SDS011;18929;48.008;10.882;2022-11-20T11:47:02;2.67;;;1.73;;
32475;SDS011;18929;48.008;10.882;2022-11-20T11:49:30;3.88;;;1.58;;
32475;SDS011;18929;48.008;10.882;2022-11-20T11:52:01;6.25;;;3.60;;
32475;SDS011;18929;48.008;10.882;2022-11-20T11:54:37;5.03;;;3.20;;
32475;SDS011;18929;48.008;10.882;2022-11-20T11:57:10;5.80;;;3.47;;
32475;SDS011;18929;48.008;10.882;2022-11-20T11:59:45;3.78;;;1.98;;
32475;SDS011;18929;48.008;10.882;2022-11-20T12:02:24;4.97;;;3.10;;
32475;SDS011;18929;48.008;10.882;2022-11-20T12:04:58;4.97;;;3.30;;
32475;SDS011;18929;48.008;10.882;2022-11-20T12:07:35;6.45;;;4.13;;
32475;SDS011;18929;48.008;10.882;2022-11-20T12:10:12;4.88;;;3.22;;
32475;SDS011;18929;48.008;10.882;2022-11-20T12:12:44;3.15;;;2.47;;
32475;SDS011;18929;48.008;10.882;2022-11-20T12:15:16;5.30;;;3.05;;
32475;SDS011;18929;48.008;10.882;2022-11-20T12:17:51;5.95;;;3.15;;
32475;SDS011;18929;48.008;10.882;2022-11-20T12:20:18;4.55;;;2.67;;
32475;SDS011;18929;48.008;10.882;2022-11-20T12:22:51;5.70;;;2.85;;
32475;SDS011;18929;48.008;10.882;2022-11-20T12:25:22;4.65;;;2.90;;
32475;SDS011;18929;48.008;10.882;2022-11-20T12:27:57;5.93;;;2.92;;
32475;SDS011;18929;48.008;10.882;2022-11-20T12:30:58;3.75;;;2.78;;
32475;SDS011;18929;48.008;10.882;2022-11-20T12:33:36;4.50;;;2.97;;
32475;SDS011;18929;48.008;10.882;2022-11-20T12:36:19;4.90;;;3.00;;
32475;SDS011;18929;48.008;10.882;2022-11-20T12:38:58;4.40;;;2.95;;
32475;SDS011;18929;48.008;10.882;2022-11-20T12:41:52;3.92;;;2.50;;
32475;SDS011;18929;48.008;10.882;2022-11-20T12:47:44;4.63;;;3.08;;
32475;SDS011;18929;48.008;10.882;2022-11-20T12:50:36;4.10;;;2.90;;
32475;SDS011;18929;48.008;10.882;2022-11-20T12:53:10;3.83;;;2.90;;
32475;SDS011;18929;48.008;10.882;2022-11-20T12:55:51;4.40;;;3.00;;
32475;SDS011;18929;48.008;10.882;2022-11-20T12:58:31;4.72;;;2.80;;
32475;SDS011;18929;48.008;10.882;2022-11-20T13:01:08;4.75;;;2.90;;
32475;SDS011;18929;48.008;10.882;2022-11-20T13:04:06;3.35;;;2.33;;
32475;SDS011;18929;48.008;10.882;2022-11-20T13:06:39;4.07;;;2.47;;
32475;SDS011;18929;48.008;10.882;2022-11-20T13:09:07;5.82;;;2.95;;
32475;SDS011;18929;48.008;10.882;2022-11-20T13:11:40;4.88;;;2.80;;
32475;SDS011;18929;48.008;10.882;2022-11-20T13:14:16;4.97;;;2.75;;
32475;SDS011;18929;48.008;10.882;2022-11-20T13:16:53;5.78;;;3.33;;
32475;SDS011;18929;48.008;10.882;2022-11-20T13:19:25;4.38;;;2.85;;
32475;SDS011;18929;48.008;10.882;2022-11-20T13:24:25;3.80;;;2.78;;
32475;SDS011;18929;48.008;10.882;2022-11-20T13:29:58;5.65;;;2.72;;
32475;SDS011;18929;48.008;10.882;2022-11-20T13:32:27;5.20;;;2.72;;
32475;SDS011;18929;48.008;10.882;2022-11-20T13:34:58;3.53;;;2.17;;
32475;SDS011;18929;48.008;10.882;2022-11-20T13:37:28;3.53;;;2.05;;
32475;SDS011;18929;48.008;10.882;2022-11-20T13:42:56;3.10;;;1.75;;
32475;SDS011;18929;48.008;10.882;2022-11-20T13:45:30;4.10;;;2.47;;
32475;SDS011;18929;48.008;10.882;2022-11-20T13:48:00;2.95;;;1.40;;
32475;SDS011;18929;48.008;10.882;2022-11-20T13:53:29;3.70;;;1.65;;
32475;SDS011;18929;48.008;10.882;2022-11-20T13:56:11;2.92;;;1.05;;
32475;SDS011;18929;48.008;10.882;2022-11-20T13:58:52;2.03;;;1.30;;
32475;SDS011;18929;48.008;10.882;2022-11-20T14:01:26;2.08;;;1.30;;
32475;SDS011;18929;48.008;10.882;2022-11-20T14:03:56;4.22;;;1.58;;
32475;SDS011;18929;48.008;10.882;2022-11-20T14:06:25;2.97;;;1.20;;
32475;SDS011;18929;48.008;10.882;2022-11-20T14:08:53;2.95;;;1.10;;
32475;SDS011;18929;48.008;10.882;2022-11-20T14:11:22;3.33;;;1.30;;
32475;SDS011;18929;48.008;10.882;2022-11-20T14:13:59;2.10;;;1.27;;
32475;SDS011;18929;48.008;10.882;2022-11-20T14:16:28;2.50;;;1.30;;
32475;SDS011;18929;48.008;10.882;2022-11-20T14:19:22;2.00;;;1.20;;
32475;SDS011;18929;48.008;10.882;2022-11-20T14:21:52;2.15;;;1.45;;
32475;SDS011;18929;48.008;10.882;2022-11-20T14:24:21;3.45;;;1.80;;
32475;SDS011;18929;48.008;10.882;2022-11-20T14:26:49;2.20;;;1.48;;
32475;SDS011;18929;48.008;10.882;2022-11-20T14:29:17;4.45;;;1.60;;
32475;SDS011;18929;48.008;10.882;2022-11-20T14:31:46;2.95;;;1.85;;
32475;SDS011;18929;48.008;10.882;2022-11-20T14:34:17;2.85;;;1.70;;
32475;SDS011;18929;48.008;10.882;2022-11-20T14:36:47;2.63;;;1.90;;
32475;SDS011;18929;48.008;10.882;2022-11-20T14:39:26;3.45;;;1.65;;
32475;SDS011;18929;48.008;10.882;2022-11-20T14:41:57;3.60;;;1.80;;
32475;SDS011;18929;48.008;10.882;2022-11-20T14:44:25;4.13;;;1.77;;
32475;SDS011;18929;48.008;10.882;2022-11-20T14:46:54;3.78;;;1.42;;
32475;SDS011;18929;48.008;10.882;2022-11-20T14:49:22;3.50;;;1.52;;
32475;SDS011;18929;48.008;10.882;2022-11-20T14:51:58;4.65;;;2.00;;
32475;SDS011;18929;48.008;10.882;2022-11-20T14:54:27;2.67;;;1.70;;
32475;SDS011;18929;48.008;10.882;2022-11-20T14:56:55;2.53;;;1.50;;
32475;SDS011;18929;48.008;10.882;2022-11-20T14:59:24;4.18;;;2.10;;
32475;SDS011;18929;48.008;10.882;2022-11-20T15:01:55;2.72;;;1.83;;
32475;SDS011;18929;48.008;10.882;2022-11-20T15:04:24;3.63;;;1.60;;
32475;SDS011;18929;48.008;10.882;2022-11-20T15:06:51;5.88;;;1.63;;
32475;SDS011;18929;48.008;10.882;2022-11-20T15:09:20;3.13;;;1.67;;
32475;SDS011;18929;48.008;10.882;2022-11-20T15:11:53;4.38;;;2.03;;
32475;SDS011;18929;48.008;10.882;2022-11-20T15:14:22;6.28;;;1.38;;
32475;SDS011;18929;48.008;10.882;2022-11-20T15:16:50;4.28;;;1.70;;